Time,TemperatureF,DewpointF,PressureIn,WindDirection,WindDirectionDegrees,WindSpeedMPH,WindSpeedGustMPH,Humidity,HourlyPrecipIn,Conditions,Clouds,dailyrainin,SoftwareType,DateUTC
2013-01-03 01:02:00,15.0,10.0,-100.00,NNW,333,0.0,2.0,79,-99.99,,,-99.99,,2013-01-03 09:02:00,
2013-01-03 01:12:00,14.0,9.0,-100.00,NW,322,0.0,1.0,79,-99.99,,,-99.99,,2013-01-03 09:12:00,
2013-01-03 01:22:00,15.0,11.0,-100.00,NW,304,0.0,6.0,82,-99.99,,,-99.99,,2013-01-03 09:22:00,
2013-01-03 01:33:00,15.0,11.0,-100.00,NW,304,0.0,6.0,82,-99.99,,,-99.99,,2013-01-03 09:33:00,
2013-01-03 01:42:00,15.0,9.0,-100.00,NNW,342,0.0,8.0,78,-99.99,,,-99.99,,2013-01-03 09:42:00,
2013-01-03 01:51:00,16.0,13.0,-100.00,West,278,0.0,11.0,84,-99.99,,,-99.99,,2013-01-03 09:51:00,
2013-01-03 01:52:00,15.0,10.0,-100.00,NNW,344,0.0,13.0,81,-99.99,,,-99.99,,2013-01-03 09:52:00,
2013-01-03 02:02:00,15.0,10.0,-100.00,NW,315,0.0,1.0,81,-99.99,,,-99.99,,2013-01-03 10:02:00,
2013-01-03 02:12:00,15.0,11.0,-100.00,NNW,344,0.0,8.0,83,-99.99,,,-99.99,,2013-01-03 10:12:00,
2013-01-03 02:22:00,16.0,13.0,-100.00,West,278,0.0,11.0,84,-99.99,,,-99.99,,2013-01-03 10:22:00,
2013-01-03 02:32:00,16.0,13.0,-100.00,West,278,0.0,11.0,84,-99.99,,,-99.99,,2013-01-03 10:32:00,
2013-01-03 02:42:00,16.0,13.0,-100.00,West,278,0.0,11.0,84,-99.99,,,-99.99,,2013-01-03 10:42:00,
2013-01-03 03:22:00,14.0,11.0,-100.00,SSW,199,2.0,12.0,88,-99.99,,,-99.99,,2013-01-03 11:22:00,
2013-01-03 03:33:00,14.0,11.0,-100.00,NNW,328,3.0,6.0,87,-99.99,,,-99.99,,2013-01-03 11:33:00,
2013-01-03 03:43:00,15.0,12.0,-100.00,NW,308,3.0,17.0,87,-99.99,,,-99.99,,2013-01-03 11:43:00,
2013-01-03 03:53:00,14.0,11.0,-100.00,SSW,199,2.0,12.0,88,-99.99,,,-99.99,,2013-01-03 11:53:00,
2013-01-03 04:02:00,14.0,11.0,-100.00,SSW,199,2.0,12.0,88,-99.99,,,-99.99,,2013-01-03 12:02:00,
2013-01-03 04:12:00,14.0,11.0,-100.00,SSW,199,2.0,12.0,88,-99.99,,,-99.99,,2013-01-03 12:12:00,
2013-01-03 04:43:00,12.0,9.0,-100.00,SW,219,1.0,11.0,89,-99.99,,,-99.99,,2013-01-03 12:43:00,
2013-01-03 04:53:00,12.0,9.0,-100.00,SW,219,1.0,11.0,89,-99.99,,,-99.99,,2013-01-03 12:53:00,
2013-01-03 05:02:00,12.0,9.0,-100.00,SW,219,1.0,11.0,89,-99.99,,,-99.99,,2013-01-03 13:02:00,
2013-01-03 06:43:00,13.0,10.0,-100.00,SSW,195,1.0,3.0,89,-99.99,,,-99.99,,2013-01-03 14:43:00,
2013-01-03 06:53:00,13.0,11.0,-100.00,SSW,206,1.0,3.0,90,-99.99,,,-99.99,,2013-01-03 14:53:00,
2013-01-03 07:02:00,13.0,11.0,-100.00,SSW,206,1.0,3.0,90,-99.99,,,-99.99,,2013-01-03 15:02:00,
2013-01-03 07:12:00,13.0,11.0,-100.00,SSW,206,1.0,3.0,90,-99.99,,,-99.99,,2013-01-03 15:12:00,
2013-01-03 07:22:00,13.0,11.0,-100.00,SSW,206,1.0,3.0,90,-99.99,,,-99.99,,2013-01-03 15:22:00,
2013-01-03 07:32:00,12.0,9.0,-100.00,West,270,0.0,13.0,88,-99.99,,,-99.99,,2013-01-03 15:32:00,
2013-01-03 07:43:00,12.0,8.0,-100.00,West,263,0.0,2.0,85,-99.99,,,-99.99,,2013-01-03 15:43:00,
2013-01-03 07:53:00,12.0,9.0,-100.00,West,270,0.0,12.0,88,-99.99,,,-99.99,,2013-01-03 15:53:00,
2013-01-03 08:03:00,12.0,9.0,-100.00,West,270,0.0,13.0,88,-99.99,,,-99.99,,2013-01-03 16:03:00,
2013-01-03 08:12:00,12.0,9.0,-100.00,West,270,0.0,13.0,88,-99.99,,,-99.99,,2013-01-03 16:12:00,
2013-01-03 08:22:00,12.0,9.0,-100.00,West,270,0.0,13.0,88,-99.99,,,-99.99,,2013-01-03 16:22:00,
2013-01-03 10:43:00,20.0,13.0,-100.00,SE,141,2.0,8.0,73,-99.99,,,-99.99,,2013-01-03 18:43:00,
2013-01-03 10:53:00,20.0,13.0,-100.00,SE,141,2.0,8.0,73,-99.99,,,-99.99,,2013-01-03 18:53:00,
2013-01-03 11:03:00,20.0,13.0,-100.00,SE,141,2.0,8.0,73,-99.99,,,-99.99,,2013-01-03 19:03:00,
2013-01-03 11:12:00,20.0,13.0,-100.00,SE,141,2.0,8.0,73,-99.99,,,-99.99,,2013-01-03 19:12:00,
2013-01-03 13:00:00,26.0,15.0,-100.00,SE,126,1.0,3.0,62,-99.99,,,-99.99,,2013-01-03 21:00:00,
2013-01-03 13:37:00,26.0,15.0,-100.00,SE,126,1.0,3.0,62,-99.99,,,-99.99,,2013-01-03 21:37:00,
2013-01-03 13:50:00,26.0,15.0,-100.00,SE,126,1.0,3.0,62,-99.99,,,-99.99,,2013-01-03 21:50:00,
2013-01-03 16:12:00,21.0,14.0,-100.00,NNW,329,0.0,1.0,73,-99.99,,,-99.99,,2013-01-04 00:12:00,
2013-01-03 16:22:00,21.0,14.0,-100.00,NNW,329,0.0,1.0,73,-99.99,,,-99.99,,2013-01-04 00:22:00,
2013-01-03 16:32:00,22.0,13.0,-100.00,WNW,296,0.0,10.0,68,-99.99,,,-99.99,,2013-01-04 00:32:00,
2013-01-03 16:42:00,22.0,12.0,-100.00,NW,306,0.0,12.0,66,-99.99,,,-99.99,,2013-01-04 00:42:00,
2013-01-03 16:52:00,22.0,12.0,-100.00,NW,313,0.0,10.0,66,-99.99,,,-99.99,,2013-01-04 00:52:00,
2013-01-03 17:02:00,22.0,12.0,-100.00,NW,313,0.0,10.0,66,-99.99,,,-99.99,,2013-01-04 01:02:00,
2013-01-03 17:12:00,22.0,12.0,-100.00,NW,313,0.0,10.0,66,-99.99,,,-99.99,,2013-01-04 01:12:00,
2013-01-03 19:01:00,21.0,12.0,-100.00,WNW,284,0.0,1.0,69,-99.99,,,-99.99,,2013-01-04 03:01:00,
2013-01-03 19:33:00,21.0,12.0,-100.00,WNW,284,0.0,1.0,69,-99.99,,,-99.99,,2013-01-04 03:33:00,
2013-01-03 19:43:00,21.0,12.0,-100.00,WNW,284,0.0,1.0,69,-99.99,,,-99.99,,2013-01-04 03:43:00,
2013-01-03 19:52:00,21.0,12.0,-100.00,WNW,284,0.0,1.0,69,-99.99,,,-99.99,,2013-01-04 03:52:00,
2013-01-03 20:32:00,20.0,12.0,-100.00,NNW,336,0.0,10.0,71,-99.99,,,-99.99,,2013-01-04 04:32:00,
2013-01-03 20:42:00,19.0,12.0,-100.00,South,181,0.0,8.0,73,-99.99,,,-99.99,,2013-01-04 04:42:00,
2013-01-03 20:52:00,19.0,12.0,-100.00,SSW,200,0.0,11.0,73,-99.99,,,-99.99,,2013-01-04 04:52:00,
2013-01-03 21:03:00,19.0,12.0,-100.00,SW,223,0.0,11.0,74,-99.99,,,-99.99,,2013-01-04 05:03:00,
2013-01-03 21:12:00,19.0,12.0,-100.00,SW,223,0.0,11.0,74,-99.99,,,-99.99,,2013-01-04 05:12:00,
2013-01-03 21:22:00,19.0,12.0,-100.00,SW,223,0.0,11.0,74,-99.99,,,-99.99,,2013-01-04 05:22:00,
2013-01-03 21:52:00,20.0,13.0,-100.00,NNW,335,0.0,13.0,73,-99.99,,,-99.99,,2013-01-04 05:52:00,
2013-01-03 22:02:00,20.0,13.0,-100.00,NW,316,0.0,10.0,73,-99.99,,,-99.99,,2013-01-04 06:02:00,
2013-01-03 22:12:00,20.0,12.0,-100.00,NW,326,0.0,13.0,72,-99.99,,,-99.99,,2013-01-04 06:12:00,
2013-01-03 22:22:00,20.0,13.0,-100.00,NNW,335,0.0,13.0,73,-99.99,,,-99.99,,2013-01-04 06:22:00,
2013-01-03 22:32:00,20.0,13.0,-100.00,NNW,335,0.0,13.0,73,-99.99,,,-99.99,,2013-01-04 06:32:00,
2013-01-03 22:42:00,20.0,13.0,-100.00,NNW,335,0.0,13.0,73,-99.99,,,-99.99,,2013-01-04 06:42:00,
2013-01-03 23:12:00,17.0,12.0,-100.00,NNW,347,0.0,8.0,80,-99.99,,,-99.99,,2013-01-04 07:12:00,
2013-01-03 23:22:00,17.0,12.0,-100.00,NNW,337,0.0,12.0,82,-99.99,,,-99.99,,2013-01-04 07:22:00,
2013-01-03 23:32:00,17.0,12.0,-100.00,NNW,337,0.0,12.0,82,-99.99,,,-99.99,,2013-01-04 07:32:00,
2013-01-03 23:42:00,17.0,12.0,-100.00,NNW,337,0.0,12.0,82,-99.99,,,-99.99,,2013-01-04 07:42:00,
2013-01-03 23:52:00,17.0,12.0,-100.00,NNW,337,0.0,12.0,82,-99.99,,,-99.99,,2013-01-04 07:52:00,